createdAt,value
2023-02-14T00:00:03.722Z,31.00
2023-02-14T00:02:31.656Z,32.40
2023-02-14T00:04:59.639Z,32.20
2023-02-14T00:07:28.974Z,29.37
2023-02-14T00:09:56.873Z,30.57
2023-02-14T00:12:24.759Z,29.80
2023-02-14T00:15:10.337Z,29.10
2023-02-14T00:17:38.196Z,31.07
2023-02-14T00:20:07.432Z,29.97
2023-02-14T00:22:36.759Z,31.60
2023-02-14T00:25:04.692Z,30.30
2023-02-14T00:27:32.596Z,30.60
2023-02-14T00:30:02.680Z,31.87
2023-02-14T00:32:30.621Z,31.50
2023-02-14T00:34:58.467Z,32.23
2023-02-14T00:37:26.446Z,32.73
2023-02-14T00:39:55.706Z,33.80
2023-02-14T00:42:23.579Z,30.20
2023-02-14T00:44:51.471Z,32.07
2023-02-14T00:47:19.337Z,29.17
2023-02-14T00:49:47.205Z,32.90
2023-02-14T00:52:15.092Z,31.33
2023-02-14T00:54:43.051Z,33.67
2023-02-14T00:57:12.282Z,29.87
2023-02-14T00:59:40.173Z,27.93
2023-02-14T01:02:08.090Z,28.90
2023-02-14T01:04:36.055Z,31.77
2023-02-14T01:07:03.948Z,30.13
2023-02-14T01:09:31.852Z,29.50
2023-02-14T01:11:59.765Z,30.67
2023-02-14T01:14:29.086Z,31.37
2023-02-14T01:16:56.966Z,27.47
2023-02-14T01:19:24.838Z,28.10
2023-02-14T01:21:52.776Z,33.50
2023-02-14T01:24:20.672Z,29.03
2023-02-14T01:26:48.551Z,29.63
2023-02-14T01:29:16.449Z,29.00
2023-02-14T01:31:48.362Z,29.67
2023-02-14T01:34:16.360Z,26.37
2023-02-14T01:36:44.209Z,27.93
2023-02-14T01:39:13.707Z,30.37
2023-02-14T01:41:42.506Z,31.67
2023-02-14T01:44:43.575Z,29.83
2023-02-14T01:47:12.852Z,29.43
2023-02-14T01:49:42.570Z,27.27
2023-02-14T01:52:12.539Z,29.40
2023-02-14T01:54:42.299Z,27.53
2023-02-14T01:57:11.122Z,30.17
2023-02-14T01:59:42.077Z,27.43
2023-02-14T02:02:09.965Z,29.93
2023-02-14T02:04:40.553Z,30.37
2023-02-14T02:07:10.554Z,30.50
2023-02-14T02:09:41.895Z,29.07
2023-02-14T02:12:09.925Z,30.47
2023-02-14T02:14:37.803Z,31.53
2023-02-14T02:17:13.503Z,30.87
2023-02-14T02:20:20.121Z,32.33
2023-02-14T02:23:17.643Z,26.93
2023-02-14T02:26:04.718Z,28.67
2023-02-14T02:28:54.618Z,30.23
2023-02-14T02:31:32.533Z,29.63
2023-02-14T02:34:21.279Z,25.17
2023-02-14T02:37:03.747Z,26.57
2023-02-14T02:39:40.395Z,28.17
2023-02-14T02:42:12.029Z,26.17
2023-02-14T02:44:44.331Z,26.93
2023-02-14T02:47:17.705Z,25.03
2023-02-14T02:50:05.013Z,28.43
2023-02-14T02:52:56.216Z,28.40
2023-02-14T02:55:27.147Z,28.50
2023-02-14T02:57:54.024Z,29.00
2023-02-14T03:00:22.630Z,30.77
2023-02-14T03:03:08.735Z,30.47
2023-02-14T03:05:36.746Z,25.67
2023-02-14T03:08:06.198Z,25.27
2023-02-14T03:10:35.921Z,29.53
2023-02-14T03:13:35.739Z,26.93
2023-02-14T03:16:34.053Z,30.43
2023-02-14T03:19:23.328Z,26.60
2023-02-14T03:21:54.668Z,29.57
2023-02-14T03:24:26.935Z,28.67
2023-02-14T03:26:58.828Z,28.87
2023-02-14T03:29:27.943Z,32.37
2023-02-14T03:31:59.332Z,29.03
2023-02-14T03:34:30.841Z,25.33
2023-02-14T03:37:00.311Z,28.67
2023-02-14T03:39:30.879Z,25.60
2023-02-14T03:42:06.067Z,29.63
2023-02-14T03:44:34.591Z,26.73
2023-02-14T03:47:03.772Z,27.47
2023-02-14T03:49:32.893Z,28.23
2023-02-14T03:52:00.898Z,27.03
2023-02-14T03:54:30.280Z,27.20
2023-02-14T03:57:00.521Z,28.50
2023-02-14T03:59:28.523Z,27.83
2023-02-14T04:01:57.602Z,28.47
2023-02-14T04:04:26.378Z,27.93
2023-02-14T04:06:54.300Z,30.27
2023-02-14T04:09:22.201Z,27.67
2023-02-14T04:11:52.490Z,28.90
2023-02-14T04:14:20.368Z,29.67
2023-02-14T04:17:05.690Z,29.97
2023-02-14T04:19:33.563Z,28.23
2023-02-14T04:22:01.480Z,29.50
2023-02-14T04:24:29.390Z,32.03
2023-02-14T04:27:11.128Z,30.50
2023-02-14T04:29:39.797Z,29.13
2023-02-14T04:32:08.492Z,29.53
2023-02-14T04:34:36.416Z,29.37
2023-02-14T04:37:04.743Z,27.77
2023-02-14T04:39:32.607Z,28.27
2023-02-14T04:42:01.909Z,29.00
2023-02-14T04:44:29.777Z,29.47
2023-02-14T04:46:57.666Z,28.00
2023-02-14T04:49:25.576Z,28.67
2023-02-14T04:51:53.419Z,27.83
2023-02-14T04:54:21.430Z,27.53
2023-02-14T04:56:49.360Z,25.20
2023-02-14T04:59:18.691Z,28.30
2023-02-14T05:01:46.617Z,27.30
2023-02-14T05:04:14.526Z,26.30
2023-02-14T05:06:42.481Z,27.70
2023-02-14T05:09:10.352Z,26.37
2023-02-14T05:11:38.289Z,27.87
2023-02-14T05:14:06.162Z,27.73
2023-02-14T05:16:35.499Z,27.27
2023-02-14T05:19:03.395Z,27.10
2023-02-14T05:21:33.167Z,26.80
2023-02-14T05:24:01.065Z,27.97
2023-02-14T05:26:29.254Z,27.93
2023-02-14T05:28:57.222Z,27.60
2023-02-14T05:31:25.216Z,27.80
2023-02-14T05:33:54.507Z,25.33
2023-02-14T05:36:22.374Z,27.80
2023-02-14T05:38:50.291Z,27.40
2023-02-14T05:41:18.161Z,25.83
2023-02-14T05:43:46.028Z,25.93
2023-02-14T05:46:13.932Z,27.63
2023-02-14T05:48:41.917Z,24.13
2023-02-14T05:51:11.339Z,23.70
2023-02-14T05:53:39.328Z,24.67
2023-02-14T05:56:07.616Z,24.40
2023-02-14T05:58:35.501Z,27.30
2023-02-14T06:01:03.378Z,25.27
2023-02-14T06:03:31.266Z,24.50
2023-02-14T06:05:59.219Z,22.27
2023-02-14T06:08:28.469Z,23.43
2023-02-14T06:10:56.359Z,23.90
2023-02-14T06:13:24.920Z,23.93
2023-02-14T06:15:52.828Z,24.10
2023-02-14T06:18:20.714Z,24.83
2023-02-14T06:20:48.610Z,25.27
2023-02-14T06:23:16.523Z,24.93
2023-02-14T06:25:45.776Z,23.83
2023-02-14T06:28:13.637Z,23.50
2023-02-14T06:30:41.752Z,22.57
2023-02-14T06:33:09.859Z,23.90
2023-02-14T06:35:37.728Z,22.20
2023-02-14T06:38:05.658Z,24.00
2023-02-14T06:40:33.538Z,22.33
2023-02-14T06:43:02.757Z,20.17
2023-02-14T06:45:30.667Z,17.13
2023-02-14T06:48:00.016Z,22.73
2023-02-14T06:50:27.933Z,21.20
2023-02-14T06:52:55.995Z,21.03
2023-02-14T06:55:23.992Z,20.07
2023-02-14T06:57:51.856Z,19.07
2023-02-14T07:00:22.426Z,21.93
2023-02-14T07:02:50.332Z,21.20
2023-02-14T07:05:19.066Z,20.47
2023-02-14T07:07:47.125Z,19.23
2023-02-14T07:10:15.080Z,20.27
2023-02-14T07:12:42.989Z,21.33
2023-02-14T07:15:11.666Z,19.73
2023-02-14T07:17:41.012Z,20.63
2023-02-14T07:20:09.550Z,21.10
2023-02-14T07:22:37.830Z,20.23
2023-02-14T07:25:06.261Z,20.87
2023-02-14T07:27:34.207Z,20.37
2023-02-14T07:30:02.201Z,20.43
2023-02-14T07:32:30.143Z,21.50
2023-02-14T07:34:59.504Z,20.10
2023-02-14T07:37:27.359Z,20.23
2023-02-14T07:39:55.487Z,21.27
2023-02-14T07:42:23.384Z,18.80
2023-02-14T07:44:51.294Z,19.63
2023-02-14T07:47:19.181Z,18.53
2023-02-14T07:49:47.040Z,18.07
2023-02-14T07:52:16.440Z,18.80
2023-02-14T07:54:44.317Z,17.53
2023-02-14T07:57:12.195Z,22.77
2023-02-14T07:59:40.125Z,19.20
2023-02-14T08:02:07.992Z,19.10
2023-02-14T08:04:35.886Z,17.80
2023-02-14T08:07:03.782Z,17.63
2023-02-14T08:09:33.172Z,18.27
2023-02-14T08:12:18.358Z,17.70
2023-02-14T08:14:46.253Z,18.00
2023-02-14T08:17:14.482Z,17.70
2023-02-14T08:19:42.395Z,16.73
2023-02-14T08:22:10.265Z,16.63
2023-02-14T08:24:39.512Z,16.03
2023-02-14T08:27:07.437Z,18.37
2023-02-14T08:29:35.344Z,19.10
2023-02-14T08:32:03.370Z,18.17
2023-02-14T08:34:31.382Z,18.70
2023-02-14T08:36:59.254Z,18.90
2023-02-14T08:39:27.153Z,18.20
2023-02-14T08:41:56.501Z,21.00
2023-02-14T08:44:24.611Z,19.10
2023-02-14T08:46:52.601Z,17.80
2023-02-14T08:49:20.552Z,18.27
2023-02-14T08:51:48.487Z,19.57
2023-02-14T08:54:16.546Z,21.83
2023-02-14T08:56:44.495Z,19.93
2023-02-14T08:59:14.190Z,21.37
2023-02-14T09:01:42.064Z,19.87
2023-02-14T09:04:10.076Z,19.73
2023-02-14T09:06:38.664Z,21.23
2023-02-14T09:09:06.588Z,16.13
2023-02-14T09:11:34.833Z,18.57
2023-02-14T09:14:02.781Z,17.53
2023-02-14T09:16:32.212Z,20.20
2023-02-14T09:19:00.298Z,19.07
2023-02-14T09:21:28.623Z,18.00
2023-02-14T09:23:56.552Z,17.33
2023-02-14T09:26:24.440Z,17.97
2023-02-14T09:28:52.399Z,19.87
2023-02-14T09:31:20.978Z,17.07
2023-02-14T09:34:08.052Z,18.03
2023-02-14T09:36:35.930Z,17.27
2023-02-14T09:39:03.837Z,16.53
2023-02-14T09:41:53.081Z,16.50
2023-02-14T09:44:25.482Z,13.77
2023-02-14T09:46:54.699Z,16.80
2023-02-14T09:49:29.626Z,16.93
2023-02-14T09:51:57.875Z,17.30
2023-02-14T09:54:27.508Z,15.40
2023-02-14T09:56:57.363Z,16.30
2023-02-14T09:59:27.458Z,16.07
2023-02-14T10:01:59.116Z,15.80
2023-02-14T10:04:30.931Z,15.97
2023-02-14T10:07:01.759Z,15.27
2023-02-14T10:09:38.012Z,15.77
2023-02-14T10:12:06.206Z,17.50
2023-02-14T10:14:40.350Z,16.37
2023-02-14T10:17:09.892Z,14.13
2023-02-14T10:19:40.530Z,16.53
2023-02-14T10:22:10.555Z,14.47
2023-02-14T10:24:39.667Z,15.50
2023-02-14T10:27:12.742Z,17.07
2023-02-14T10:29:40.654Z,14.27
2023-02-14T10:32:13.156Z,15.20
2023-02-14T10:34:43.391Z,15.37
2023-02-14T10:37:20.985Z,15.93
2023-02-14T10:39:57.328Z,14.47
2023-02-14T10:42:27.523Z,14.77
2023-02-14T10:44:57.738Z,13.57
2023-02-14T10:47:32.480Z,14.03
2023-02-14T10:50:06.620Z,13.67
2023-02-14T10:52:38.270Z,13.20
2023-02-14T10:55:13.903Z,13.70
2023-02-14T10:57:44.717Z,13.30
2023-02-14T11:00:18.921Z,13.00
2023-02-14T11:02:47.620Z,13.70
2023-02-14T11:05:24.979Z,13.63
2023-02-14T11:07:53.033Z,10.13
2023-02-14T11:10:21.679Z,11.97
2023-02-14T11:12:49.615Z,11.53
2023-02-14T11:15:22.933Z,11.80
2023-02-14T11:17:50.859Z,11.67
2023-02-14T11:20:25.684Z,11.13
2023-02-14T11:22:53.670Z,11.43
2023-02-14T11:25:23.290Z,11.77
2023-02-14T11:27:52.453Z,11.50
2023-02-14T11:30:22.557Z,10.67
2023-02-14T11:32:55.141Z,10.97
2023-02-14T11:35:27.105Z,10.60
2023-02-14T11:37:55.695Z,11.23
2023-02-14T11:40:34.296Z,10.93
2023-02-14T11:43:19.821Z,10.67
2023-02-14T11:45:48.483Z,10.30
2023-02-14T11:48:24.824Z,10.60
2023-02-14T11:51:03.116Z,10.87
2023-02-14T11:53:35.028Z,10.37
2023-02-14T11:56:02.914Z,10.63
2023-02-14T11:58:35.355Z,10.03
2023-02-14T12:01:03.281Z,10.50
2023-02-14T12:03:33.940Z,10.30
2023-02-14T12:06:03.321Z,10.10
2023-02-14T12:08:46.904Z,9.77
2023-02-14T12:11:24.431Z,8.87
2023-02-14T12:13:55.792Z,8.93
2023-02-14T12:16:28.041Z,9.87
2023-02-14T12:18:57.480Z,9.90
2023-02-14T12:21:41.041Z,9.27
2023-02-14T12:24:17.506Z,9.33
2023-02-14T12:26:47.904Z,9.40
2023-02-14T12:29:19.398Z,9.77
2023-02-14T12:31:47.971Z,9.17
2023-02-14T12:34:16.765Z,8.90
2023-02-14T12:37:10.105Z,8.67
2023-02-14T12:39:47.870Z,9.13
2023-02-14T12:42:24.047Z,9.30
2023-02-14T12:44:55.671Z,9.47
2023-02-14T12:47:26.196Z,8.43
2023-02-14T12:50:18.592Z,9.53
2023-02-14T12:53:06.273Z,8.32
2023-02-14T12:55:50.719Z,8.70
2023-02-14T12:58:32.448Z,9.90
2023-02-14T13:01:06.898Z,8.93
2023-02-14T13:03:59.131Z,9.70
2023-02-14T13:06:30.317Z,10.35
2023-02-14T13:09:18.403Z,9.55
2023-02-14T13:11:55.548Z,9.88
2023-02-14T13:14:35.677Z,10.10
2023-02-14T13:17:06.406Z,9.02
2023-02-14T13:19:36.563Z,9.95
2023-02-14T13:22:05.158Z,9.18
2023-02-14T13:24:35.758Z,9.43
2023-02-14T13:27:05.841Z,8.93
2023-02-14T13:29:35.649Z,9.00
2023-02-14T13:32:03.442Z,9.17
2023-02-14T13:34:32.759Z,9.25
2023-02-14T13:37:00.958Z,9.43
2023-02-14T13:39:32.901Z,7.70
2023-02-14T13:42:05.546Z,7.45
2023-02-14T13:44:47.108Z,8.05
2023-02-14T13:47:19.399Z,8.38
2023-02-14T13:49:48.846Z,8.75
2023-02-14T13:52:16.958Z,8.32
2023-02-14T13:54:45.978Z,8.02
2023-02-14T13:57:34.049Z,8.45
2023-02-14T14:00:38.538Z,7.40
2023-02-14T14:03:06.672Z,7.85
2023-02-14T14:06:06.025Z,7.43
2023-02-14T14:08:56.708Z,7.55
2023-02-14T14:11:59.641Z,7.95
2023-02-14T14:14:39.831Z,7.45
2023-02-14T14:17:21.926Z,7.05
2023-02-14T14:19:52.411Z,7.40
2023-02-14T14:22:20.914Z,6.68
2023-02-14T14:24:59.801Z,7.57
2023-02-14T14:27:30.767Z,6.72
2023-02-14T14:30:01.113Z,6.90
2023-02-14T14:32:30.687Z,7.00
2023-02-14T14:34:59.392Z,6.97
2023-02-14T14:37:28.532Z,7.07
2023-02-14T14:39:57.387Z,6.45
2023-02-14T14:42:25.926Z,6.63
2023-02-14T14:44:55.364Z,6.78
2023-02-14T14:47:25.506Z,5.95
2023-02-14T14:49:54.032Z,6.03
2023-02-14T14:52:32.422Z,6.22
2023-02-14T14:55:00.310Z,6.90
2023-02-14T14:57:28.192Z,7.15
2023-02-14T15:00:09.371Z,7.13
2023-02-14T15:02:38.779Z,7.10
2023-02-14T15:05:17.703Z,7.38
2023-02-14T15:07:48.414Z,7.43
2023-02-14T15:10:24.391Z,7.50
2023-02-14T15:13:09.952Z,7.00
2023-02-14T15:15:38.202Z,7.78
2023-02-14T15:18:08.340Z,8.55
2023-02-14T15:20:36.939Z,8.02
2023-02-14T15:23:04.977Z,8.43
2023-02-14T15:25:33.711Z,8.50
2023-02-14T15:28:01.706Z,9.15
2023-02-14T15:30:34.223Z,8.98
2023-02-14T15:33:02.381Z,9.20
2023-02-14T15:35:32.603Z,9.33
2023-02-14T15:38:02.692Z,9.27
2023-02-14T15:40:32.325Z,10.00
2023-02-14T15:43:03.464Z,9.23
2023-02-14T15:45:31.871Z,9.60
2023-02-14T15:48:01.325Z,9.20
2023-02-14T15:50:31.894Z,9.37
2023-02-14T15:53:03.978Z,10.00
2023-02-14T15:55:32.131Z,10.10
2023-02-14T15:58:02.267Z,10.53
2023-02-14T16:00:31.720Z,9.97
2023-02-14T16:03:00.836Z,9.47
2023-02-14T16:05:28.868Z,9.53
2023-02-14T16:08:03.658Z,10.63
2023-02-14T16:10:33.172Z,11.87
2023-02-14T16:13:02.537Z,10.73
2023-02-14T16:15:31.882Z,10.00
2023-02-14T16:18:01.108Z,11.17
2023-02-14T16:20:31.969Z,11.50
2023-02-14T16:23:26.203Z,11.10
2023-02-14T16:25:54.374Z,10.73
2023-02-14T16:28:22.962Z,10.93
2023-02-14T16:30:55.281Z,10.90
2023-02-14T16:33:24.276Z,11.40
2023-02-14T16:35:52.400Z,10.60
2023-02-14T16:38:21.890Z,9.87
2023-02-14T16:40:50.677Z,10.53
2023-02-14T16:43:19.980Z,10.23
2023-02-14T16:45:48.135Z,10.17
2023-02-14T16:48:16.883Z,10.13
2023-02-14T16:50:45.067Z,10.07
2023-02-14T16:53:26.154Z,11.70
2023-02-14T16:55:55.092Z,11.47
2023-02-14T16:58:23.382Z,10.97
2023-02-14T17:00:51.248Z,11.57
2023-02-14T17:03:19.223Z,11.17
2023-02-14T17:05:47.586Z,11.40
2023-02-14T17:08:16.295Z,11.93
2023-02-14T17:10:46.033Z,11.63
2023-02-14T17:13:13.915Z,12.83
2023-02-14T17:15:41.895Z,12.77
2023-02-14T17:18:11.331Z,13.53
2023-02-14T17:20:39.212Z,10.83
2023-02-14T17:23:07.129Z,12.80
2023-02-14T17:25:35.363Z,13.67
2023-02-14T17:28:05.148Z,12.73
2023-02-14T17:30:33.052Z,14.20
2023-02-14T17:33:01.025Z,15.03
2023-02-14T17:35:28.990Z,14.83
2023-02-14T17:37:56.946Z,14.73
2023-02-14T17:40:25.334Z,13.90
2023-02-14T17:42:53.331Z,13.77
2023-02-14T17:45:22.615Z,14.30
2023-02-14T17:47:50.913Z,15.07
2023-02-14T17:50:19.001Z,15.57
2023-02-14T17:52:46.966Z,16.17
2023-02-14T17:55:15.823Z,15.00
2023-02-14T17:57:43.806Z,15.43
2023-02-14T18:00:14.153Z,15.40
2023-02-14T18:02:43.422Z,15.03
2023-02-14T18:05:12.317Z,15.53
2023-02-14T18:07:40.264Z,16.07
2023-02-14T18:10:08.837Z,18.10
2023-02-14T18:12:36.755Z,18.30
2023-02-14T18:15:05.612Z,15.80
2023-02-14T18:17:33.526Z,14.27
2023-02-14T18:20:03.369Z,14.87
2023-02-14T18:22:31.294Z,15.07
2023-02-14T18:24:59.176Z,15.20
2023-02-14T18:27:27.485Z,15.47
2023-02-14T18:29:55.463Z,15.10
2023-02-14T18:32:23.380Z,16.13
2023-02-14T18:34:52.440Z,15.40
2023-02-14T18:37:22.190Z,15.63
2023-02-14T18:39:50.057Z,15.33
2023-02-14T18:42:17.950Z,17.27
2023-02-14T18:44:45.883Z,18.40
2023-02-14T18:47:13.794Z,17.47
2023-02-14T18:49:41.710Z,20.13
2023-02-14T18:52:09.622Z,17.50
2023-02-14T18:54:39.660Z,18.93
2023-02-14T18:57:08.229Z,17.10
2023-02-14T18:59:36.111Z,16.57
2023-02-14T19:02:04.023Z,14.30
2023-02-14T19:04:32.230Z,16.77
2023-02-14T19:07:00.320Z,18.20
2023-02-14T19:09:29.500Z,18.40
2023-02-14T19:12:00.142Z,19.47
2023-02-14T19:14:28.212Z,19.93
2023-02-14T19:16:56.061Z,20.60
2023-02-14T19:19:24.093Z,17.73
2023-02-14T19:21:52.113Z,17.07
2023-02-14T19:24:21.158Z,18.17
2023-02-14T19:26:49.405Z,18.40
2023-02-14T19:29:20.170Z,18.30
2023-02-14T19:31:49.568Z,19.20
2023-02-14T19:34:18.166Z,18.43
2023-02-14T19:36:46.228Z,17.73
2023-02-14T19:39:14.149Z,18.17
2023-02-14T19:41:42.016Z,18.00
2023-02-14T19:44:10.445Z,19.33
2023-02-14T19:46:39.917Z,18.40
2023-02-14T19:49:07.859Z,19.37
2023-02-14T19:51:36.346Z,18.50
2023-02-14T19:54:07.134Z,19.13
2023-02-14T19:56:36.579Z,19.30
2023-02-14T19:59:07.830Z,16.63
2023-02-14T20:01:36.899Z,17.57
2023-02-14T20:04:07.464Z,15.83
2023-02-14T20:06:35.426Z,17.63
2023-02-14T20:09:03.685Z,18.37
2023-02-14T20:11:35.540Z,17.03
2023-02-14T20:14:03.725Z,17.47
2023-02-14T20:16:32.831Z,18.17
2023-02-14T20:19:02.438Z,17.93
2023-02-14T20:21:31.876Z,18.23
2023-02-14T20:24:00.811Z,16.23
2023-02-14T20:26:28.933Z,16.30
2023-02-14T20:28:56.957Z,18.00
2023-02-14T20:31:25.027Z,18.13
2023-02-14T20:33:53.029Z,18.13
2023-02-14T20:36:21.040Z,18.23
2023-02-14T20:38:54.524Z,15.30
2023-02-14T20:41:22.439Z,15.70
2023-02-14T20:43:50.339Z,16.47
2023-02-14T20:46:18.216Z,17.27
2023-02-14T20:48:46.470Z,17.13
2023-02-14T20:51:15.284Z,17.53
2023-02-14T20:53:43.230Z,17.00
2023-02-14T20:56:12.734Z,16.53
2023-02-14T20:58:40.872Z,17.87
2023-02-14T21:01:09.085Z,16.90
2023-02-14T21:03:37.402Z,17.20
2023-02-14T21:06:05.684Z,18.40
2023-02-14T21:08:33.616Z,17.77
2023-02-14T21:11:01.909Z,18.27
2023-02-14T21:13:31.446Z,19.23
2023-02-14T21:16:03.183Z,18.53
2023-02-14T21:18:31.191Z,19.97
2023-02-14T21:21:05.088Z,18.87
2023-02-14T21:23:33.003Z,18.03
2023-02-14T21:28:28.973Z,18.27
2023-02-14T21:31:05.166Z,17.97
2023-02-14T21:33:33.458Z,17.83
2023-02-14T21:36:07.032Z,16.53
2023-02-14T21:38:35.083Z,17.73
2023-02-14T21:41:04.855Z,17.80
2023-02-14T21:43:34.684Z,17.53
2023-02-14T21:46:05.503Z,16.60
2023-02-14T21:48:50.823Z,16.70
2023-02-14T21:51:18.945Z,14.93
2023-02-14T21:53:46.893Z,15.43
2023-02-14T21:56:18.074Z,13.93
2023-02-14T21:58:46.028Z,14.50
2023-02-14T22:01:17.514Z,15.03
2023-02-14T22:03:45.454Z,15.93
2023-02-14T22:06:14.181Z,14.73
2023-02-14T22:08:42.065Z,13.53
2023-02-14T22:11:10.849Z,14.63
2023-02-14T22:13:38.718Z,14.03
2023-02-14T22:16:07.820Z,14.50
2023-02-14T22:18:37.153Z,13.83
2023-02-14T22:21:06.004Z,13.47
2023-02-14T22:23:34.277Z,12.53
2023-02-14T22:26:10.210Z,13.20
2023-02-14T22:28:38.093Z,12.70
2023-02-14T22:31:06.080Z,12.97
2023-02-14T22:33:34.426Z,13.27
2023-02-14T22:36:05.120Z,13.47
2023-02-14T22:38:33.044Z,12.87
2023-02-14T22:41:05.918Z,13.43
2023-02-14T22:43:34.077Z,14.47
2023-02-14T22:46:04.102Z,14.77
2023-02-14T22:48:32.772Z,15.20
2023-02-14T22:51:09.729Z,14.87
2023-02-14T22:53:37.719Z,14.73
2023-02-14T22:56:12.945Z,14.27
2023-02-14T22:58:40.851Z,16.97
2023-02-14T23:01:13.128Z,15.17
2023-02-14T23:03:41.418Z,15.37
2023-02-14T23:06:10.658Z,16.23
2023-02-14T23:08:40.062Z,15.37
2023-02-14T23:11:09.406Z,15.77
2023-02-14T23:13:55.235Z,16.83
2023-02-14T23:16:37.066Z,18.00
2023-02-14T23:19:22.548Z,17.77
2023-02-14T23:21:57.709Z,17.53
2023-02-14T23:24:25.589Z,18.17
2023-02-14T23:26:55.178Z,18.43
2023-02-14T23:29:23.168Z,18.93
2023-02-14T23:31:51.261Z,19.60
2023-02-14T23:34:19.311Z,19.00
2023-02-14T23:36:47.176Z,20.37
2023-02-14T23:39:16.413Z,20.40
2023-02-14T23:41:50.255Z,19.83
2023-02-14T23:44:19.242Z,20.10
2023-02-14T23:46:47.432Z,20.63
2023-02-14T23:49:15.430Z,20.73
2023-02-14T23:51:43.273Z,20.73
2023-02-14T23:54:11.277Z,21.80
2023-02-14T23:56:40.726Z,22.17
2023-02-14T23:59:08.985Z,23.00
